sensor_id;sensor_type;location;lat;lon;timestamp;pressure;altitude;pressure_sealevel;temperature;humidity
10897;BME280;5501;51.176;6.470;2023-02-03T00:01:32;101997.31;;;9.67;100.00
10897;BME280;5501;51.176;6.470;2023-02-03T00:06:33;101977.88;;;9.59;100.00
10897;BME280;5501;51.176;6.470;2023-02-03T00:11:35;101969.91;;;9.58;100.00
10897;BME280;5501;51.176;6.470;2023-02-03T00:16:36;101969.06;;;9.54;100.00
10897;BME280;5501;51.176;6.470;2023-02-03T00:21:38;101975.22;;;9.62;100.00
10897;BME280;5501;51.176;6.470;2023-02-03T00:26:41;101969.06;;;9.54;100.00
10897;BME280;5501;51.176;6.470;2023-02-03T00:31:43;101979.63;;;9.63;100.00
10897;BME280;5501;51.176;6.470;2023-02-03T00:36:45;101954.84;;;9.64;100.00
10897;BME280;5501;51.176;6.470;2023-02-03T00:41:48;101941.59;;;9.58;100.00
10897;BME280;5501;51.176;6.470;2023-02-03T00:46:50;101953.06;;;9.66;100.00
10897;BME280;5501;51.176;6.470;2023-02-03T00:51:52;101946.00;;;9.56;100.00
10897;BME280;5501;51.176;6.470;2023-02-03T00:56:54;101954.78;;;9.75;100.00
10897;BME280;5501;51.176;6.470;2023-02-03T01:01:55;101960.19;;;9.58;100.00
10897;BME280;5501;51.176;6.470;2023-02-03T01:06:57;101969.84;;;9.71;100.00
10897;BME280;5501;51.176;6.470;2023-02-03T01:12:00;101968.97;;;9.69;100.00
10897;BME280;5501;51.176;6.470;2023-02-03T01:17:01;101995.53;;;9.69;100.00
10897;BME280;5501;51.176;6.470;2023-02-03T01:22:03;101999.06;;;9.71;100.00
10897;BME280;5501;51.176;6.470;2023-02-03T01:27:05;102000.84;;;9.69;100.00
10897;BME280;5501;51.176;6.470;2023-02-03T01:32:06;102007.91;;;9.73;100.00
10897;BME280;5501;51.176;6.470;2023-02-03T01:37:08;102009.66;;;9.77;100.00
10897;BME280;5501;51.176;6.470;2023-02-03T01:42:12;102018.53;;;9.76;100.00
10897;BME280;5501;51.176;6.470;2023-02-03T01:52:18;102022.94;;;9.76;100.00
10897;BME280;5501;51.176;6.470;2023-02-03T01:57:23;102011.47;;;9.75;100.00
10897;BME280;5501;51.176;6.470;2023-02-03T02:02:28;102011.41;;;9.84;100.00
10897;BME280;5501;51.176;6.470;2023-02-03T02:07:30;102007.91;;;9.79;100.00
10897;BME280;5501;51.176;6.470;2023-02-03T02:12:32;102009.66;;;9.86;100.00
10897;BME280;5501;51.176;6.470;2023-02-03T02:23:35;101988.47;;;9.65;100.00
10897;BME280;5501;51.176;6.470;2023-02-03T02:34:21;101976.03;;;9.81;100.00
10897;BME280;5501;51.176;6.470;2023-02-03T02:50:22;101981.34;;;9.76;100.00
10897;BME280;5501;51.176;6.470;2023-02-03T02:55:30;101971.56;;;9.87;100.00
10897;BME280;5501;51.176;6.470;2023-02-03T03:00:36;101982.25;;;9.77;100.00
10897;BME280;5501;51.176;6.470;2023-02-03T03:05:43;101968.91;;;9.81;100.00
10897;BME280;5501;51.176;6.470;2023-02-03T03:10:51;101950.34;;;9.78;100.00
10897;BME280;5501;51.176;6.470;2023-02-03T03:15:56;101951.25;;;9.74;100.00
10897;BME280;5501;51.176;6.470;2023-02-03T03:21:00;101971.59;;;9.78;100.00
10897;BME280;5501;51.176;6.470;2023-02-03T03:26:23;101961.84;;;9.77;100.00
10897;BME280;5501;51.176;6.470;2023-02-03T03:31:28;101969.81;;;9.80;100.00
10897;BME280;5501;51.176;6.470;2023-02-03T03:36:38;101957.44;;;9.79;100.00
10897;BME280;5501;51.176;6.470;2023-02-03T03:47:19;101961.81;;;9.86;100.00
10897;BME280;5501;51.176;6.470;2023-02-03T03:52:27;101968.91;;;9.81;100.00
10897;BME280;5501;51.176;6.470;2023-02-03T03:57:35;101968.91;;;9.84;100.00
10897;BME280;5501;51.176;6.470;2023-02-03T04:02:41;101945.88;;;9.86;100.00
10897;BME280;5501;51.176;6.470;2023-02-03T04:07:46;101945.88;;;9.86;100.00
10897;BME280;5501;51.176;6.470;2023-02-03T04:12:47;101938.81;;;9.82;100.00
10897;BME280;5501;51.176;6.470;2023-02-03T04:17:49;101959.13;;;9.95;100.00
10897;BME280;5501;51.176;6.470;2023-02-03T04:22:50;101960.03;;;9.85;100.00
10897;BME280;5501;51.176;6.470;2023-02-03T04:27:52;101955.59;;;9.90;100.00
10897;BME280;5501;51.176;6.470;2023-02-03T04:32:53;101948.50;;;9.94;100.00
10897;BME280;5501;51.176;6.470;2023-02-03T04:37:55;101947.66;;;9.86;100.00
10897;BME280;5501;51.176;6.470;2023-02-03T04:42:56;101965.34;;;9.85;100.00
10897;BME280;5501;51.176;6.470;2023-02-03T04:47:58;101952.97;;;9.87;100.00
10897;BME280;5501;51.176;6.470;2023-02-03T04:52:59;101949.44;;;9.82;100.00
10897;BME280;5501;51.176;6.470;2023-02-03T04:58:01;101940.59;;;9.80;100.00
10897;BME280;5501;51.176;6.470;2023-02-03T05:03:03;101942.34;;;9.83;99.96
10897;BME280;5501;51.176;6.470;2023-02-03T05:08:04;101952.06;;;9.84;99.59
10897;BME280;5501;51.176;6.470;2023-02-03T05:13:06;101945.84;;;9.89;99.68
10897;BME280;5501;51.176;6.470;2023-02-03T05:18:07;101945.84;;;9.91;98.59
10897;BME280;5501;51.176;6.470;2023-02-03T05:23:09;101941.47;;;9.82;99.71
10897;BME280;5501;51.176;6.470;2023-02-03T05:28:10;101929.09;;;9.77;99.57
10897;BME280;5501;51.176;6.470;2023-02-03T05:33:12;101912.25;;;9.82;99.37
10897;BME280;5501;51.176;6.470;2023-02-03T05:38:13;101927.28;;;9.82;99.23
10897;BME280;5501;51.176;6.470;2023-02-03T05:43:15;101931.69;;;9.90;98.49
10897;BME280;5501;51.176;6.470;2023-02-03T05:48:16;101952.88;;;9.99;98.00
10897;BME280;5501;51.176;6.470;2023-02-03T05:53:17;101964.50;;;9.85;98.70
10897;BME280;5501;51.176;6.470;2023-02-03T05:58:19;101975.97;;;9.88;98.48
10897;BME280;5501;51.176;6.470;2023-02-03T06:03:20;101952.06;;;9.91;97.75
10897;BME280;5501;51.176;6.470;2023-02-03T06:08:22;101960.03;;;9.88;97.80
10897;BME280;5501;51.176;6.470;2023-02-03T06:13:23;101973.31;;;9.85;97.69
10897;BME280;5501;51.176;6.470;2023-02-03T06:18:25;101968.91;;;9.90;96.89
10897;BME280;5501;51.176;6.470;2023-02-03T06:23:26;101950.25;;;9.92;96.99
10897;BME280;5501;51.176;6.470;2023-02-03T06:28:28;101965.34;;;9.88;96.45
10897;BME280;5501;51.176;6.470;2023-02-03T06:33:30;101962.69;;;9.90;96.68
10897;BME280;5501;51.176;6.470;2023-02-03T06:38:32;101953.81;;;9.89;96.65
10897;BME280;5501;51.176;6.470;2023-02-03T06:43:34;101945.84;;;9.89;96.34
10897;BME280;5501;51.176;6.470;2023-02-03T06:48:36;101944.09;;;9.88;96.29
10897;BME280;5501;51.176;6.470;2023-02-03T06:53:37;101952.94;;;9.90;96.21
10897;BME280;5501;51.176;6.470;2023-02-03T06:58:39;101946.69;;;9.94;96.21
10897;BME280;5501;51.176;6.470;2023-02-03T07:03:40;101948.50;;;9.94;96.25
10897;BME280;5501;51.176;6.470;2023-02-03T07:08:42;101951.16;;;9.95;95.73
10897;BME280;5501;51.176;6.470;2023-02-03T07:13:43;101958.22;;;9.96;95.98
10897;BME280;5501;51.176;6.470;2023-02-03T07:18:45;101973.25;;;9.97;96.17
10897;BME280;5501;51.176;6.470;2023-02-03T07:23:48;101970.59;;;10.00;95.30
10897;BME280;5501;51.176;6.470;2023-02-03T07:28:50;101958.19;;;10.08;95.40
10897;BME280;5501;51.176;6.470;2023-02-03T07:33:52;101968.78;;;10.02;95.56
10897;BME280;5501;51.176;6.470;2023-02-03T07:38:54;101956.38;;;10.10;94.70
10897;BME280;5501;51.176;6.470;2023-02-03T07:43:56;101968.84;;;9.96;95.52
10897;BME280;5501;51.176;6.470;2023-02-03T07:48:57;101962.63;;;9.99;95.45
10897;BME280;5501;51.176;6.470;2023-02-03T07:53:59;101968.81;;;10.05;95.37
10897;BME280;5501;51.176;6.470;2023-02-03T07:59:00;101989.19;;;10.09;94.80
10897;BME280;5501;51.176;6.470;2023-02-03T08:04:02;101990.94;;;10.13;95.63
10897;BME280;5501;51.176;6.470;2023-02-03T08:09:05;101975.88;;;10.15;95.31
10897;BME280;5501;51.176;6.470;2023-02-03T08:14:07;101981.19;;;10.12;95.47
10897;BME280;5501;51.176;6.470;2023-02-03T08:19:09;101989.19;;;10.06;95.83
10897;BME280;5501;51.176;6.470;2023-02-03T08:24:10;101995.38;;;10.11;95.29
10897;BME280;5501;51.176;6.470;2023-02-03T08:29:12;102015.75;;;10.11;95.52
10897;BME280;5501;51.176;6.470;2023-02-03T08:34:13;102009.53;;;10.15;94.73
10897;BME280;5501;51.176;6.470;2023-02-03T08:39:14;102026.38;;;10.14;94.77
10897;BME280;5501;51.176;6.470;2023-02-03T08:44:16;102009.47;;;10.25;94.06
10897;BME280;5501;51.176;6.470;2023-02-03T08:49:20;102019.25;;;10.25;94.42
10897;BME280;5501;51.176;6.470;2023-02-03T08:54:22;102021.91;;;10.23;95.14
10897;BME280;5501;51.176;6.470;2023-02-03T08:59:24;102021.06;;;10.06;97.31
10897;BME280;5501;51.176;6.470;2023-02-03T09:04:25;102028.19;;;10.06;99.15
10897;BME280;5501;51.176;6.470;2023-02-03T09:09:27;102036.13;;;10.01;100.00
10897;BME280;5501;51.176;6.470;2023-02-03T09:14:32;102037.94;;;9.93;100.00
10897;BME280;5501;51.176;6.470;2023-02-03T09:19:34;102031.78;;;9.93;100.00
10897;BME280;5501;51.176;6.470;2023-02-03T09:24:37;102021.19;;;9.72;100.00
10897;BME280;5501;51.176;6.470;2023-02-03T09:29:38;102032.72;;;9.75;100.00
10897;BME280;5501;51.176;6.470;2023-02-03T09:34:40;102031.81;;;9.76;100.00
10897;BME280;5501;51.176;6.470;2023-02-03T09:39:41;102036.28;;;9.74;100.00
10897;BME280;5501;51.176;6.470;2023-02-03T09:50:19;102032.72;;;9.72;100.00
10897;BME280;5501;51.176;6.470;2023-02-03T09:55:42;102033.56;;;9.82;100.00
10897;BME280;5501;51.176;6.470;2023-02-03T10:17:16;102055.66;;;9.94;100.00
10897;BME280;5501;51.176;6.470;2023-02-03T10:22:23;102059.25;;;9.84;100.00
10897;BME280;5501;51.176;6.470;2023-02-03T10:27:30;102045.13;;;9.70;100.00
10897;BME280;5501;51.176;6.470;2023-02-03T10:32:33;102039.78;;;9.73;100.00
10897;BME280;5501;51.176;6.470;2023-02-03T10:37:41;102052.16;;;9.86;100.00
10897;BME280;5501;51.176;6.470;2023-02-03T10:42:46;102042.44;;;9.75;100.00
10897;BME280;5501;51.176;6.470;2023-02-03T10:48:12;102044.19;;;9.82;100.00
10897;BME280;5501;51.176;6.470;2023-02-03T10:53:23;102029.16;;;9.82;100.00
10897;BME280;5501;51.176;6.470;2023-02-03T10:58:26;102038.00;;;9.81;100.00
10897;BME280;5501;51.176;6.470;2023-02-03T11:03:29;102039.69;;;10.00;100.00
10897;BME280;5501;51.176;6.470;2023-02-03T11:08:31;102041.44;;;10.10;100.00
10897;BME280;5501;51.176;6.470;2023-02-03T11:13:34;102037.91;;;10.11;100.00
10897;BME280;5501;51.176;6.470;2023-02-03T11:23:53;102032.56;;;10.14;100.00
10897;BME280;5501;51.176;6.470;2023-02-03T11:28:57;102036.91;;;10.32;100.00
10897;BME280;5501;51.176;6.470;2023-02-03T11:34:04;102038.72;;;10.25;100.00
10897;BME280;5501;51.176;6.470;2023-02-03T11:39:27;102048.44;;;10.32;100.00
10897;BME280;5501;51.176;6.470;2023-02-03T11:44:29;102037.88;;;10.20;100.00
10897;BME280;5501;51.176;6.470;2023-02-03T11:49:50;102047.53;;;10.36;100.00
10897;BME280;5501;51.176;6.470;2023-02-03T11:55:25;102052.06;;;10.16;100.00
10897;BME280;5501;51.176;6.470;2023-02-03T12:05:53;102055.50;;;10.30;100.00
10897;BME280;5501;51.176;6.470;2023-02-03T12:16:42;102049.25;;;10.43;100.00
10897;BME280;5501;51.176;6.470;2023-02-03T12:21:55;102048.34;;;10.48;100.00
10897;BME280;5501;51.176;6.470;2023-02-03T12:27:16;102055.31;;;10.63;100.00
10897;BME280;5501;51.176;6.470;2023-02-03T12:32:59;102058.94;;;10.50;100.00
10897;BME280;5501;51.176;6.470;2023-02-03T12:38:13;102054.44;;;10.63;100.00
10897;BME280;5501;51.176;6.470;2023-02-03T12:43:43;102058.03;;;10.59;100.00
10897;BME280;5501;51.176;6.470;2023-02-03T12:49:00;102061.59;;;10.53;100.00
10897;BME280;5501;51.176;6.470;2023-02-03T12:54:37;102063.28;;;10.67;100.00
10897;BME280;5501;51.176;6.470;2023-02-03T12:59:50;102068.59;;;10.67;100.00
10897;BME280;5501;51.176;6.470;2023-02-03T13:04:58;102070.41;;;10.63;100.00
10897;BME280;5501;51.176;6.470;2023-02-03T13:10:18;102065.00;;;10.78;100.00
10897;BME280;5501;51.176;6.470;2023-02-03T13:15:29;102063.19;;;10.80;100.00
10897;BME280;5501;51.176;6.470;2023-02-03T13:20:34;102058.78;;;10.76;100.00
10897;BME280;5501;51.176;6.470;2023-02-03T13:36:15;102052.34;;;11.06;100.00
10897;BME280;5501;51.176;6.470;2023-02-03T13:41:39;102050.72;;;10.88;100.00
10897;BME280;5501;51.176;6.470;2023-02-03T13:46:46;102047.13;;;10.89;100.00
10897;BME280;5501;51.176;6.470;2023-02-03T13:51:48;102043.53;;;11.01;100.00
10897;BME280;5501;51.176;6.470;2023-02-03T13:56:59;102038.22;;;10.98;100.00
10897;BME280;5501;51.176;6.470;2023-02-03T14:12:32;102060.22;;;11.21;98.99
10897;BME280;5501;51.176;6.470;2023-02-03T14:22:38;102068.88;;;11.41;97.73
10897;BME280;5501;51.176;6.470;2023-02-03T14:27:40;102067.19;;;11.31;97.97
10897;BME280;5501;51.176;6.470;2023-02-03T14:32:49;102063.63;;;11.32;97.92
10897;BME280;5501;51.176;6.470;2023-02-03T14:37:54;102062.81;;;11.27;98.22
10897;BME280;5501;51.176;6.470;2023-02-03T14:43:21;102074.47;;;11.11;98.57
10897;BME280;5501;51.176;6.470;2023-02-03T14:59:01;102103.78;;;11.09;99.30
10897;BME280;5501;51.176;6.470;2023-02-03T15:09:40;102114.25;;;11.29;97.39
10897;BME280;5501;51.176;6.470;2023-02-03T15:14:46;102118.81;;;11.18;97.35
10897;BME280;5501;51.176;6.470;2023-02-03T15:19:48;102127.72;;;11.15;97.23
10897;BME280;5501;51.176;6.470;2023-02-03T15:24:51;102119.72;;;11.17;97.66
10897;BME280;5501;51.176;6.470;2023-02-03T15:29:55;102127.63;;;11.26;97.30
10897;BME280;5501;51.176;6.470;2023-02-03T15:35:02;102131.41;;;10.90;100.00
10897;BME280;5501;51.176;6.470;2023-02-03T15:40:17;102133.22;;;10.90;100.00
10897;BME280;5501;51.176;6.470;2023-02-03T15:45:27;102163.47;;;10.68;100.00
10897;BME280;5501;51.176;6.470;2023-02-03T15:50:39;102159.16;;;10.45;100.00
10897;BME280;5501;51.176;6.470;2023-02-03T15:55:48;102180.44;;;10.41;100.00
10897;BME280;5501;51.176;6.470;2023-02-03T16:01:18;102180.53;;;10.18;100.00
10897;BME280;5501;51.176;6.470;2023-02-03T16:06:28;102187.66;;;10.10;100.00
10897;BME280;5501;51.176;6.470;2023-02-03T16:11:38;102197.41;;;10.08;100.00
10897;BME280;5501;51.176;6.470;2023-02-03T16:16:47;102190.31;;;9.89;100.00
10897;BME280;5501;51.176;6.470;2023-02-03T16:22:25;102208.94;;;9.94;100.00
10897;BME280;5501;51.176;6.470;2023-02-03T16:27:31;102228.41;;;9.88;100.00
10897;BME280;5501;51.176;6.470;2023-02-03T16:32:32;102226.66;;;9.86;100.00
10897;BME280;5501;51.176;6.470;2023-02-03T16:37:52;102243.47;;;9.83;100.00
10897;BME280;5501;51.176;6.470;2023-02-03T16:43:14;102236.41;;;9.82;100.00
10897;BME280;5501;51.176;6.470;2023-02-03T16:48:34;102234.59;;;9.93;100.00
10897;BME280;5501;51.176;6.470;2023-02-03T16:53:55;102241.72;;;9.82;100.00
10897;BME280;5501;51.176;6.470;2023-02-03T16:58:56;102245.25;;;9.74;100.00
10897;BME280;5501;51.176;6.470;2023-02-03T17:03:57;102261.19;;;9.81;100.00
10897;BME280;5501;51.176;6.470;2023-02-03T17:08:59;102260.31;;;9.82;100.00
10897;BME280;5501;51.176;6.470;2023-02-03T17:14:00;102270.94;;;9.76;100.00
10897;BME280;5501;51.176;6.470;2023-02-03T17:19:03;102266.50;;;9.81;100.00
10897;BME280;5501;51.176;6.470;2023-02-03T17:24:04;102267.38;;;9.79;100.00
10897;BME280;5501;51.176;6.470;2023-02-03T17:29:08;102273.56;;;9.94;100.00
10897;BME280;5501;51.176;6.470;2023-02-03T17:34:10;102285.09;;;9.92;99.56
10897;BME280;5501;51.176;6.470;2023-02-03T17:39:12;102294.88;;;9.82;99.28
10897;BME280;5501;51.176;6.470;2023-02-03T17:44:35;102295.75;;;9.89;98.58
10897;BME280;5501;51.176;6.470;2023-02-03T17:49:54;102309.03;;;9.84;98.56
10897;BME280;5501;51.176;6.470;2023-02-03T17:55:12;102319.66;;;9.75;97.77
10897;BME280;5501;51.176;6.470;2023-02-03T18:00:14;102330.28;;;9.75;97.67
10897;BME280;5501;51.176;6.470;2023-02-03T18:05:16;102334.69;;;9.78;97.90
10897;BME280;5501;51.176;6.470;2023-02-03T18:10:18;102333.81;;;9.77;96.22
10897;BME280;5501;51.176;6.470;2023-02-03T18:15:20;102342.69;;;9.79;96.15
10897;BME280;5501;51.176;6.470;2023-02-03T18:20:21;102336.44;;;9.68;96.84
10897;BME280;5501;51.176;6.470;2023-02-03T18:25:23;102340.00;;;9.72;97.40
10897;BME280;5501;51.176;6.470;2023-02-03T18:30:24;102355.06;;;9.80;97.65
10897;BME280;5501;51.176;6.470;2023-02-03T18:35:26;102369.25;;;9.79;98.45
10897;BME280;5501;51.176;6.470;2023-02-03T18:40:27;102372.78;;;9.83;99.93
10897;BME280;5501;51.176;6.470;2023-02-03T18:45:29;102374.56;;;9.76;100.00
10897;BME280;5501;51.176;6.470;2023-02-03T18:50:31;102391.38;;;9.74;100.00
10897;BME280;5501;51.176;6.470;2023-02-03T18:55:33;102369.25;;;9.85;100.00
10897;BME280;5501;51.176;6.470;2023-02-03T19:00:35;102376.34;;;9.89;100.00
10897;BME280;5501;51.176;6.470;2023-02-03T19:05:40;102388.75;;;9.90;100.00
10897;BME280;5501;51.176;6.470;2023-02-03T19:10:41;102390.53;;;9.88;100.00
10897;BME280;5501;51.176;6.470;2023-02-03T19:15:43;102390.53;;;9.97;100.00
10897;BME280;5501;51.176;6.470;2023-02-03T19:20:45;102388.75;;;9.96;100.00
10897;BME280;5501;51.176;6.470;2023-02-03T19:25:50;102397.59;;;9.98;100.00
10897;BME280;5501;51.176;6.470;2023-02-03T19:30:52;102392.31;;;10.01;100.00
10897;BME280;5501;51.176;6.470;2023-02-03T19:36:07;102402.94;;;9.95;100.00
10897;BME280;5501;51.176;6.470;2023-02-03T19:41:09;102397.59;;;9.83;100.00
10897;BME280;5501;51.176;6.470;2023-02-03T19:46:12;102402.91;;;9.88;100.00
10897;BME280;5501;51.176;6.470;2023-02-03T19:51:14;102411.78;;;9.88;100.00
10897;BME280;5501;51.176;6.470;2023-02-03T19:56:15;102429.50;;;9.89;100.00
10897;BME280;5501;51.176;6.470;2023-02-03T20:01:17;102433.09;;;10.06;100.00
10897;BME280;5501;51.176;6.470;2023-02-03T20:06:19;102436.59;;;9.96;99.17
10897;BME280;5501;51.176;6.470;2023-02-03T20:11:21;102448.16;;;10.12;97.50
10897;BME280;5501;51.176;6.470;2023-02-03T20:16:23;102441.91;;;9.93;95.41
10897;BME280;5501;51.176;6.470;2023-02-03T20:21:24;102455.19;;;9.89;94.72
10897;BME280;5501;51.176;6.470;2023-02-03T20:26:26;102477.34;;;9.95;92.93
10897;BME280;5501;51.176;6.470;2023-02-03T20:31:27;102471.16;;;10.02;91.94
10897;BME280;5501;51.176;6.470;2023-02-03T20:36:29;102468.47;;;9.87;91.65
10897;BME280;5501;51.176;6.470;2023-02-03T20:41:31;102466.69;;;9.83;90.62
10897;BME280;5501;51.176;6.470;2023-02-03T20:46:32;102464.94;;;9.88;88.87
10897;BME280;5501;51.176;6.470;2023-02-03T20:51:34;102474.69;;;9.86;88.39
10897;BME280;5501;51.176;6.470;2023-02-03T20:56:35;102493.25;;;9.80;87.49
10897;BME280;5501;51.176;6.470;2023-02-03T21:01:37;102482.59;;;9.77;87.30
10897;BME280;5501;51.176;6.470;2023-02-03T21:06:39;102484.41;;;9.84;87.28
10897;BME280;5501;51.176;6.470;2023-02-03T21:11:41;102492.38;;;9.84;87.37
10897;BME280;5501;51.176;6.470;2023-02-03T21:16:43;102484.44;;;9.96;87.12
10897;BME280;5501;51.176;6.470;2023-02-03T21:21:44;102480.84;;;9.76;87.61
10897;BME280;5501;51.176;6.470;2023-02-03T21:26:47;102482.59;;;9.77;87.76
10897;BME280;5501;51.176;6.470;2023-02-03T21:31:50;102487.00;;;9.69;88.41
10897;BME280;5501;51.176;6.470;2023-02-03T21:36:52;102495.88;;;9.76;89.17
10897;BME280;5501;51.176;6.470;2023-02-03T21:41:54;102494.13;;;9.76;90.43
10897;BME280;5501;51.176;6.470;2023-02-03T21:46:56;102500.25;;;9.63;91.04
10897;BME280;5501;51.176;6.470;2023-02-03T21:51:58;102508.25;;;9.71;91.58
10897;BME280;5501;51.176;6.470;2023-02-03T21:57:00;102496.75;;;9.70;91.45
10897;BME280;5501;51.176;6.470;2023-02-03T22:02:01;102498.56;;;9.74;91.59
10897;BME280;5501;51.176;6.470;2023-02-03T22:07:13;102505.59;;;9.66;91.88
10897;BME280;5501;51.176;6.470;2023-02-03T22:12:15;102508.31;;;9.84;91.31
10897;BME280;5501;51.176;6.470;2023-02-03T22:17:16;102518.00;;;9.67;92.68
10897;BME280;5501;51.176;6.470;2023-02-03T22:22:18;102519.84;;;9.83;92.69
10897;BME280;5501;51.176;6.470;2023-02-03T22:27:20;102523.38;;;9.85;92.89
10897;BME280;5501;51.176;6.470;2023-02-03T22:32:21;102544.56;;;9.67;92.53
10897;BME280;5501;51.176;6.470;2023-02-03T22:37:23;102545.38;;;9.53;92.35
10897;BME280;5501;51.176;6.470;2023-02-03T22:42:24;102552.44;;;9.52;91.79
10897;BME280;5501;51.176;6.470;2023-02-03T22:47:26;102546.31;;;9.62;91.24
10897;BME280;5501;51.176;6.470;2023-02-03T22:52:27;102555.94;;;9.47;92.15
10897;BME280;5501;51.176;6.470;2023-02-03T22:57:29;102558.63;;;9.48;91.79
10897;BME280;5501;51.176;6.470;2023-02-03T23:02:30;102553.31;;;9.51;91.93
10897;BME280;5501;51.176;6.470;2023-02-03T23:07:32;102556.03;;;9.56;91.87
10897;BME280;5501;51.176;6.470;2023-02-03T23:12:33;102566.56;;;9.45;92.57
10897;BME280;5501;51.176;6.470;2023-02-03T23:17:35;102565.69;;;9.46;92.63
10897;BME280;5501;51.176;6.470;2023-02-03T23:22:37;102578.03;;;9.38;92.97
10897;BME280;5501;51.176;6.470;2023-02-03T23:27:38;102594.88;;;9.43;92.41
10897;BME280;5501;51.176;6.470;2023-02-03T23:32:40;102610.69;;;9.24;92.00
10897;BME280;5501;51.176;6.470;2023-02-03T23:37:42;102613.41;;;9.34;92.35
10897;BME280;5501;51.176;6.470;2023-02-03T23:42:43;102617.88;;;9.41;91.36
10897;BME280;5501;51.176;6.470;2023-02-03T23:47:45;102620.53;;;9.43;91.33
10897;BME280;5501;51.176;6.470;2023-02-03T23:52:47;102619.66;;;9.42;90.79
10897;BME280;5501;51.176;6.470;2023-02-03T23:57:49;102626.56;;;9.21;91.64
